Terminal Aerodrome Forecast
Issued by NWS

Home | Current Version | Previous Version | Text Only | Print | Product List | Glossary On
Versions: 1 2 3 4 5 6 7 8 9 10 11 12 13 14 15 16 17 18 19 20 21 22 23 24 25 26 27 28
000
FTUS43 KSGF 292328
TAFJLN
TAF
KJLN 292328Z 3000/3024 18008KT P6SM VCTS SCT040CB OVC070
     FM300200 20007KT P6SM OVC060
     FM300700 20010KT P6SM OVC025
     FM301400 22012G18KT 4SM -RA BR OVC015=

USA.gov is the U.S. government's official web portal to all federal, state and local government web resources and services.